Latest Weather Observations for Kanagulk

IDV60801

Issued at 2:31 pm EST Sunday 19 April 2015 (issued every 30 minutes, with the page automatically refreshed every 10 minutes)

About weather observations | Map of weather stations | Latest weather observations for VIC | Other Formats
Station Details ID: 079097 Name: KANAGULK Lat: -37.12 Lon: 141.80 Height: 188.8 m
Data from the previous 72 hours. | See also: Recent months at Kanagulk
Date/Time
EST
Temp
°C
App
Temp
°C
Dew
Point
Rel
Hum
%
Delta-T
°C
Wind Press
QNH
hPa
Press
MSL
hPa
Rain
since 9 am
mm
Dir
 
Spd
km/h
Gust
km/h
Spd
kts
Gust
kts
19/02:30pm 12.0 4.4 3.8 57 3.7 SSE 33 48 18 26 1031.9 1031.8 0.0
19/02:00pm 13.9 7.9 3.1 48 4.8 S 24 37 13 20 1031.5 1031.3 0.0
19/01:34pm 12.8 6.3 4.5 57 3.8 SSW 28 46 15 25 1031.5 1031.3 0.0
19/01:30pm 12.6 5.3 4.3 57 3.8 S 32 46 17 25 1031.5 1031.3 0.0
19/01:11pm 13.9 7.0 2.5 46 5.1 S 28 46 15 25 1031.2 1031.0 0.0
19/01:00pm 13.0 6.3 1.7 46 4.9 S 26 39 14 21 1031.2 1031.0 0.0
19/12:30pm 13.1 8.7 4.5 56 4.0 S 17 24 9 13 1031.3 1031.1 0.0
19/12:00pm 12.6 6.3 1.3 46 4.8 SSW 24 39 13 21 1031.4 1031.2 0.0
19/11:30am 13.2 6.6 1.8 46 5.0 S 26 37 14 20 1031.1 1030.9 0.0
19/11:00am 12.4 6.5 3.9 56 3.8 S 24 32 13 17 1030.8 1030.6 0.0
19/10:30am 11.7 5.1 4.4 61 3.3 S 28 39 15 21 1030.7 1030.5 0.0
19/10:00am 11.4 5.4 5.5 67 2.7 S 26 37 14 20 1030.3 1030.1 0.0
19/09:30am 10.5 5.8 5.3 70 2.4 S 19 26 10 14 1030.1 1029.9 0.0
19/09:00am 9.6 4.8 5.8 77 1.7 S 20 30 11 16 1029.7 1029.6 4.8
19/08:30am 8.4 4.7 6.2 86 1.0 SSW 15 22 8 12 1029.1 1029.0 4.8
19/08:00am 7.3 4.6 5.8 90 0.7 SSW 9 19 5 10 1028.3 1028.2 4.8
19/07:30am 6.1 2.6 5.4 95 0.3 SW 13 19 7 10 1027.5 1027.4 4.8
19/07:00am 4.7 1.6 3.8 94 0.4 SW 9 11 5 6 1026.8 1026.6 4.8
19/06:30am 5.7 2.8 4.7 93 0.4 SSW 9 11 5 6 1026.1 1025.9 4.8
19/06:00am 5.9 3.0 4.9 93 0.4 SSW 9 13 5 7 1025.6 1025.4 4.8
19/05:30am 6.2 2.6 5.2 93 0.4 SW 13 19 7 10 1025.1 1024.9 4.8
19/05:00am 6.3 3.2 5.4 94 0.4 SW 11 17 6 9 1024.6 1024.4 4.8
19/04:30am 6.5 3.0 5.6 94 0.4 SW 13 22 7 12 1024.0 1023.9 4.8
19/04:00am 6.5 3.3 5.1 91 0.6 SW 11 15 6 8 1023.7 1023.6 4.8
19/03:30am 7.0 3.1 5.3 89 0.8 SW 15 20 8 11 1023.5 1023.4 4.8
19/03:00am 6.9 3.3 5.2 89 0.8 SSW 13 19 7 10 1023.1 1023.0 4.6
19/02:30am 7.2 3.0 5.8 91 0.6 SSW 17 24 9 13 1023.1 1023.0 4.6
19/02:00am 6.9 3.4 5.5 91 0.6 SW 13 19 7 10 1022.8 1022.7 4.6
19/01:30am 7.1 3.2 5.4 89 0.8 SW 15 22 8 12 1022.5 1022.4 4.6
19/01:00am 8.1 3.6 7.0 93 0.5 SW 20 33 11 18 1022.3 1022.1 4.6
19/12:30am 7.2 4.1 7.1 99 0.0 SW 13 22 7 12 1021.7 1021.5 4.6
19/12:00am 6.4 3.8 6.3 99 0.0 WSW 9 15 5 8 1021.3 1021.1 4.6
 
Date/Time
EST
Temp
°C
App
Temp
°C
Dew
Point
Rel
Hum
%
Delta-T
°C
Wind Press
QNH
hPa
Press
MSL
hPa
Rain
since 9 am
mm
Dir
 
Spd
km/h
Gust
km/h
Spd
kts
Gust
kts
18/11:30pm 6.7 4.6 6.6 99 0.0 WSW 7 11 4 6 1021.0 1020.8 4.6
18/11:00pm 7.5 5.2 7.4 99 0.0 WSW 9 15 5 8 1020.9 1020.7 4.6
18/10:30pm 7.6 5.7 7.5 99 0.0 WSW 7 11 4 6 1020.7 1020.5 4.6
18/10:00pm 8.0 6.4 7.9 99 0.0 WSW 6 9 3 5 1020.2 1020.0 4.4
18/09:30pm 8.6 6.9 8.5 99 0.0 WSW 7 11 4 6 1019.7 1019.5 4.4
18/09:00pm 9.3 7.1 9.2 99 0.0 WSW 11 19 6 10 1019.1 1018.9 4.4
18/08:30pm 9.3 7.8 9.2 99 0.0 WSW 7 13 4 7 1018.6 1018.5 4.4
18/08:00pm 9.6 8.2 9.5 99 0.1 WSW 7 11 4 6 1017.9 1017.7 4.4
18/07:30pm 10.2 8.9 10.0 99 0.1 WSW 7 11 4 6 1017.7 1017.5 4.4
18/07:00pm 10.3 9.0 10.1 99 0.1 SW 7 11 4 6 1017.2 1017.0 4.4
18/06:30pm 10.2 8.5 10.0 99 0.1 SW 9 15 5 8 1016.4 1016.2 4.4
18/06:00pm 10.3 7.5 10.1 99 0.1 SW 15 20 8 11 1015.9 1015.7 4.0
18/05:30pm 10.5 6.5 10.3 99 0.1 SW 22 37 12 20 1015.3 1015.1 3.8
18/05:00pm 11.6 8.2 11.4 99 0.1 SSW 20 30 11 16 1014.6 1014.4 3.2
18/04:30pm 12.4 9.3 12.2 99 0.1 SW 20 35 11 19 1014.0 1013.8 2.4
18/04:00pm 14.5 12.6 14.2 98 0.2 WSW 17 26 9 14 1013.2 1012.9 1.4
18/03:30pm 14.9 12.4 13.6 92 0.7 W 19 33 10 18 1012.8 1012.6 0.2
18/03:00pm 18.7 15.5 9.8 56 4.8 WNW 17 30 9 16 1012.2 1012.0 0.0
18/02:30pm 19.9 16.4 10.3 54 5.2 WNW 19 35 10 19 1011.9 1011.7 0.0
18/02:00pm 17.8 13.3 10.2 61 4.1 WNW 24 41 13 22 1012.7 1012.5 0.0
18/01:51pm 18.0 14.5 10.1 60 4.2 W 19 39 10 21 1012.7 1012.5 0.0
18/01:30pm 17.4 15.8 11.4 68 3.3 WNW 11 17 6 9 1012.9 1012.7 0.0
18/01:00pm 16.6 13.7 10.9 69 3.1 WNW 17 30 9 16 1013.7 1013.5 0.0
18/12:30pm 16.9 13.4 10.3 65 3.5 WNW 19 32 10 17 1013.9 1013.7 0.0
18/12:00pm 17.6 14.7 9.8 60 4.1 W 15 26 8 14 1014.2 1014.0 0.0
18/11:30am 18.2 15.8 11.5 65 3.7 WNW 15 26 8 14 1014.4 1014.2 0.0
18/11:00am 16.1 13.6 11.1 72 2.7 NW 15 24 8 13 1014.7 1014.5 0.0
18/10:30am 14.9 12.5 11.5 80 1.8 NW 15 22 8 12 1015.0 1014.8 0.0
18/10:00am 13.4 11.7 12.3 93 0.6 WNW 13 20 7 11 1015.4 1015.2 0.0
18/09:30am 12.4 11.0 12.2 99 0.1 NW 11 20 6 11 1015.7 1015.5 0.0
18/09:00am 11.8 10.2 11.6 99 0.1 W 11 19 6 10 1015.5 1015.3 1.0
18/08:30am 11.0 9.6 10.8 99 0.1 W 9 17 5 9 1015.4 1015.2 1.0
18/08:00am 10.1 9.0 9.9 99 0.1 W 6 7 3 4 1015.0 1014.8 1.0
18/07:30am 9.0 8.8 8.9 99 0.0 CALM 0 0 0 0 1014.7 1014.5 1.0
18/07:00am 9.1 8.9 9.0 99 0.0 CALM 0 0 0 0 1014.5 1014.3 1.0
18/06:30am 10.0 10.0 9.9 99 0.1 CALM 0 6 0 3 1014.5 1014.3 1.0
18/06:00am 10.1 10.1 9.9 99 0.1 CALM 0 4 0 2 1014.5 1014.3 1.0
18/05:30am 10.1 9.7 9.9 99 0.1 WNW 2 7 1 4 1014.3 1014.1 1.0
18/05:00am 10.6 10.0 10.4 99 0.1 WNW 4 9 2 5 1014.1 1013.9 1.0
18/04:30am 11.0 9.9 10.8 99 0.1 W 7 11 4 6 1013.9 1013.7 1.0
18/04:00am 11.0 10.1 10.8 99 0.1 W 6 9 3 5 1013.6 1013.4 1.0
18/03:30am 11.1 10.1 10.9 99 0.1 W 7 11 4 6 1013.5 1013.3 1.0
18/03:00am 11.3 10.3 11.1 99 0.1 WNW 7 17 4 9 1013.9 1013.7 1.0
18/02:30am 11.3 10.5 11.1 99 0.1 WNW 6 11 3 6 1014.2 1014.0 0.8
18/02:00am 11.3 10.3 11.1 99 0.1 W 7 11 4 6 1014.4 1014.2 0.8
18/01:30am 11.3 11.7 11.1 99 0.1 CALM 0 0 0 0 1014.5 1014.3 0.8
18/01:00am 11.2 11.5 11.0 99 0.1 CALM 0 0 0 0 1014.4 1014.2 0.8
18/12:30am 11.4 11.8 11.2 99 0.1 CALM 0 0 0 0 1014.7 1014.5 0.8
18/12:00am 11.5 11.9 11.3 99 0.1 CALM 0 0 0 0 1015.2 1015.0 0.8
 
Date/Time
EST
Temp
°C
App
Temp
°C
Dew
Point
Rel
Hum
%
Delta-T
°C
Wind Press
QNH
hPa
Press
MSL
hPa
Rain
since 9 am
mm
Dir
 
Spd
km/h
Gust
km/h
Spd
kts
Gust
kts
17/11:30pm 11.5 11.9 11.3 99 0.1 CALM 0 0 0 0 1015.6 1015.4 0.6
17/11:00pm 11.5 11.9 11.3 99 0.1 CALM 0 0 0 0 1016.0 1015.8 0.6
17/10:30pm 11.5 11.9 11.3 99 0.1 CALM 0 0 0 0 1016.1 1015.9 0.4
17/10:00pm 11.4 11.8 11.2 99 0.1 CALM 0 0 0 0 1016.0 1015.8 0.4
17/09:30pm 11.5 11.9 11.3 99 0.1 CALM 0 0 0 0 1016.0 1015.8 0.4
17/09:00pm 11.5 11.9 11.2 98 0.2 CALM 0 0 0 0 1016.1 1015.9 0.4
17/08:30pm 11.5 11.8 11.0 97 0.3 CALM 0 0 0 0 1016.2 1016.0 0.4
17/08:00pm 11.6 10.5 10.8 95 0.4 N 7 9 4 5 1016.2 1016.0 0.4
17/07:30pm 11.9 10.5 10.8 93 0.6 N 9 13 5 7 1016.4 1016.2 0.4
17/07:00pm 12.2 10.3 10.4 89 0.9 NNE 11 15 6 8 1016.4 1016.2 0.4
17/06:30pm 12.2 11.3 10.6 90 0.8 NNE 6 7 3 4 1016.5 1016.3 0.4
17/06:00pm 12.2 12.3 10.3 88 1.0 CALM 0 0 0 0 1016.5 1016.3 0.2
17/05:30pm 12.6 12.4 9.1 79 1.8 CALM 0 4 0 2 1016.5 1016.3 0.2
17/05:00pm 13.7 12.1 8.1 69 2.8 ENE 6 9 3 5 1016.3 1016.1 0.0
17/04:30pm 14.3 10.9 7.8 65 3.3 NNE 15 17 8 9 1016.3 1016.1 0.0
17/04:00pm 14.4 10.6 7.5 63 3.4 NE 17 22 9 12 1016.6 1016.4 0.0
17/03:30pm 14.8 10.5 7.1 60 3.8 NNE 19 24 10 13 1016.9 1016.7 0.0
17/03:00pm 15.2 11.1 7.7 61 3.8 NNE 19 22 10 12 1017.1 1016.9 0.0
17/02:30pm 15.3 11.5 7.6 60 3.9 NNE 17 20 9 11 1017.5 1017.3 0.0
17/02:00pm 15.3 12.3 7.6 60 3.9 NNE 13 19 7 10 1018.4 1018.3 0.0
17/01:30pm 14.7 12.8 7.7 63 3.5 N 7 13 4 7 1019.1 1018.9 0.0
17/01:00pm 14.2 12.5 8.2 67 3.0 NNW 7 13 4 7 1020.1 1019.9 0.0
17/12:30pm 13.7 12.0 8.3 70 2.7 NE 7 11 4 6 1019.8 1019.6 0.0
17/12:00pm 13.0 11.5 8.5 74 2.3 NNE 6 9 3 5 1020.9 1020.7 0.0
17/11:30am 12.8 11.9 7.9 72 2.4 ENE 2 7 1 4 1021.4 1021.2 0.0
17/11:00am 12.5 10.7 8.0 74 2.2 SE 7 9 4 5 1021.3 1021.1 0.0
17/10:30am 12.1 11.2 7.8 75 2.1 SE 2 7 1 4 1022.0 1021.8 0.0
17/10:00am 11.5 9.2 7.4 76 2.0 SE 9 11 5 6 1021.9 1021.7 0.0
17/09:30am 10.8 8.4 7.1 78 1.8 SE 9 11 5 6 1022.6 1022.5 0.0
17/09:00am 10.6 8.3 7.3 80 1.6 SE 9 11 5 6 1022.8 1022.7 0.0
17/08:30am 10.0 7.3 7.4 84 1.3 SSE 11 13 6 7 1022.8 1022.7 0.0
17/08:00am 9.3 7.0 7.4 88 0.9 S 9 11 5 6 1023.0 1022.9 0.0
17/07:30am 8.6 7.9 6.9 89 0.8 CALM 0 0 0 0 1023.0 1022.9 0.0
17/07:00am 8.5 7.7 6.6 88 0.9 CALM 0 0 0 0 1022.9 1022.8 0.0
17/06:30am 8.5 7.7 6.6 88 0.9 CALM 0 0 0 0 1023.0 1022.9 0.0
17/06:00am 8.7 7.9 6.5 86 1.0 CALM 0 0 0 0 1022.7 1022.6 0.0
17/05:30am 9.0 8.2 6.4 84 1.2 CALM 0 0 0 0 1022.5 1022.4 0.0
17/05:00am 9.2 7.6 6.5 83 1.3 SSE 4 9 2 5 1022.6 1022.5 0.0
17/04:30am 9.3 7.2 6.6 83 1.3 SSE 7 9 4 5 1022.4 1022.2 0.0
17/04:00am 9.3 7.2 6.6 83 1.3 S 7 13 4 7 1022.5 1022.4 0.0
17/03:30am 9.2 8.4 6.3 82 1.4 CALM 0 0 0 0 1022.7 1022.6 0.0
17/03:00am 9.5 7.3 6.4 81 1.4 S 7 9 4 5 1022.8 1022.7 0.0
17/02:30am 9.8 7.7 6.5 80 1.6 SSE 7 9 4 5 1022.8 1022.7 0.0
17/02:00am 10.2 8.1 6.5 78 1.7 SSE 7 11 4 6 1023.0 1022.9 0.0
17/01:30am 10.6 8.5 6.6 76 1.9 E 7 9 4 5 1023.4 1023.3 0.0
17/01:00am 10.7 7.4 6.6 76 1.9 SSE 13 15 7 8 1024.1 1024.0 0.0
17/12:30am 10.8 7.5 6.6 75 2.0 SSE 13 15 7 8 1024.5 1024.3 0.0
17/12:00am 11.0 7.7 6.6 74 2.1 SSE 13 17 7 9 1025.1 1024.9 0.0
 
Date/Time
EST
Temp
°C
App
Temp
°C
Dew
Point
Rel
Hum
%
Delta-T
°C
Wind Press
QNH
hPa
Press
MSL
hPa
Rain
since 9 am
mm
Dir
 
Spd
km/h
Gust
km/h
Spd
kts
Gust
kts
16/11:30pm 11.1 7.4 6.5 73 2.2 SSE 15 19 8 10 1025.3 1025.1 0.0
16/11:00pm 11.3 7.7 6.6 73 2.2 SSE 15 19 8 10 1025.8 1025.6 0.0
16/10:30pm 11.4 7.4 6.5 72 2.3 SSE 17 22 9 12 1025.9 1025.7 0.0
16/10:00pm 11.7 7.4 6.8 72 2.3 SSE 19 24 10 13 1025.9 1025.7 0.0
16/09:30pm 12.1 7.8 6.8 70 2.6 SSE 19 30 10 16 1025.8 1025.6 0.0
16/09:00pm 12.4 8.1 7.1 70 2.6 SSE 19 24 10 13 1025.5 1025.3 0.0
16/08:30pm 12.7 8.2 7.0 68 2.8 SSE 20 26 11 14 1025.4 1025.2 0.0
16/08:00pm 13.3 10.0 6.4 63 3.3 SSE 13 17 7 9 1025.2 1025.0 0.0
16/07:30pm 13.8 10.5 6.4 61 3.6 SSE 13 19 7 10 1025.5 1025.3 0.0
16/07:00pm 14.0 10.7 6.6 61 3.6 SSE 13 15 7 8 1025.5 1025.3 0.0
16/06:30pm 14.5 11.7 6.8 60 3.8 S 11 15 6 8 1025.2 1025.0 0.0
16/06:00pm 14.5 11.9 6.1 57 4.0 SE 9 11 5 6 1024.8 1024.6 0.0
16/05:30pm 15.5 12.5 6.0 53 4.6 S 11 13 6 7 1025.1 1024.9 0.0
16/05:00pm 16.0 13.0 5.9 51 4.9 SSW 11 15 6 8 1025.4 1025.2 0.0
16/04:30pm 16.4 13.4 6.0 50 5.1 S 11 17 6 9 1025.2 1025.0 0.0
16/04:00pm 16.7 12.9 5.6 48 5.4 S 15 20 8 11 1024.8 1024.6 0.0
16/03:30pm 16.9 13.2 6.1 49 5.3 S 15 20 8 11 1024.4 1024.2 0.0
16/03:00pm 17.3 13.6 6.5 49 5.3 SSW 15 22 8 12 1024.3 1024.1 0.0

Other Formats:

Comma delimited format used in spreadsheet applications
http://www.bom.gov.au/fwo/IDV60801/IDV60801.95827.axf

JavaScript Object Notation format (JSON) in row-major order
http://www.bom.gov.au/fwo/IDV60801/IDV60801.95827.json